sensor_id;sensor_type;location;lat;lon;timestamp;pressure;altitude;pressure_sealevel;temperature;humidity
4133;BME280;2080;51.038;7.008;2023-03-04T00:02:05;77927.00;;;-142.53;100.00
4133;BME280;2080;51.038;7.008;2023-03-04T00:04:33;77919.22;;;-142.53;100.00
4133;BME280;2080;51.038;7.008;2023-03-04T00:06:58;77919.22;;;-142.53;100.00
4133;BME280;2080;51.038;7.008;2023-03-04T00:09:23;77909.50;;;-142.53;100.00
4133;BME280;2080;51.038;7.008;2023-03-04T00:11:51;77913.38;;;-142.53;100.00
4133;BME280;2080;51.038;7.008;2023-03-04T00:14:19;77913.38;;;-142.53;100.00
4133;BME280;2080;51.038;7.008;2023-03-04T00:16:45;77917.28;;;-142.53;100.00
4133;BME280;2080;51.038;7.008;2023-03-04T00:19:10;77917.28;;;-142.53;100.00
4133;BME280;2080;51.038;7.008;2023-03-04T00:21:37;77917.28;;;-142.53;100.00
4133;BME280;2080;51.038;7.008;2023-03-04T00:24:03;77921.16;;;-142.53;100.00
4133;BME280;2080;51.038;7.008;2023-03-04T00:26:28;77919.22;;;-142.53;100.00
4133;BME280;2080;51.038;7.008;2023-03-04T00:28:54;77921.16;;;-142.53;100.00
4133;BME280;2080;51.038;7.008;2023-03-04T00:31:21;77925.06;;;-142.53;100.00
4133;BME280;2080;51.038;7.008;2023-03-04T00:33:47;77917.28;;;-142.53;100.00
4133;BME280;2080;51.038;7.008;2023-03-04T00:36:12;77909.50;;;-142.53;100.00
4133;BME280;2080;51.038;7.008;2023-03-04T00:38:38;77919.22;;;-142.53;100.00
4133;BME280;2080;51.038;7.008;2023-03-04T00:41:06;77913.38;;;-142.53;100.00
4133;BME280;2080;51.038;7.008;2023-03-04T00:43:31;77909.50;;;-142.53;100.00
4133;BME280;2080;51.038;7.008;2023-03-04T00:45:57;77913.38;;;-142.53;100.00
4133;BME280;2080;51.038;7.008;2023-03-04T00:48:23;77909.50;;;-142.53;100.00
4133;BME280;2080;51.038;7.008;2023-03-04T00:50:50;77909.50;;;-142.53;100.00
4133;BME280;2080;51.038;7.008;2023-03-04T00:53:18;77909.50;;;-142.53;100.00
4133;BME280;2080;51.038;7.008;2023-03-04T00:55:43;77913.38;;;-142.53;100.00
4133;BME280;2080;51.038;7.008;2023-03-04T00:58:08;77909.50;;;-142.53;100.00
4133;BME280;2080;51.038;7.008;2023-03-04T01:00:34;77909.50;;;-142.53;100.00
4133;BME280;2080;51.038;7.008;2023-03-04T01:02:59;77893.97;;;-142.53;100.00
4133;BME280;2080;51.038;7.008;2023-03-04T01:05:25;77892.00;;;-142.53;100.00
4133;BME280;2080;51.038;7.008;2023-03-04T01:07:50;77893.97;;;-142.53;100.00
4133;BME280;2080;51.038;7.008;2023-03-04T01:10:16;77892.00;;;-142.53;100.00
4133;BME280;2080;51.038;7.008;2023-03-04T01:12:41;77892.00;;;-142.53;100.00
4133;BME280;2080;51.038;7.008;2023-03-04T01:15:11;77882.31;;;-142.53;100.00
4133;BME280;2080;51.038;7.008;2023-03-04T01:17:39;77884.25;;;-142.53;100.00
4133;BME280;2080;51.038;7.008;2023-03-04T01:20:06;77890.06;;;-142.53;100.00
4133;BME280;2080;51.038;7.008;2023-03-04T01:22:31;77890.06;;;-142.53;100.00
4133;BME280;2080;51.038;7.008;2023-03-04T01:24:56;77895.91;;;-142.53;100.00
4133;BME280;2080;51.038;7.008;2023-03-04T01:27:24;77893.97;;;-142.53;100.00
4133;BME280;2080;51.038;7.008;2023-03-04T01:29:52;77893.97;;;-142.53;100.00
4133;BME280;2080;51.038;7.008;2023-03-04T01:32:20;77892.00;;;-142.53;100.00
4133;BME280;2080;51.038;7.008;2023-03-04T01:34:45;77890.06;;;-142.53;100.00
4133;BME280;2080;51.038;7.008;2023-03-04T01:37:11;77895.91;;;-142.53;100.00
4133;BME280;2080;51.038;7.008;2023-03-04T01:39:40;77893.97;;;-142.53;100.00
4133;BME280;2080;51.038;7.008;2023-03-04T01:42:15;77890.06;;;-142.53;100.00
4133;BME280;2080;51.038;7.008;2023-03-04T01:44:42;77890.06;;;-142.53;100.00
4133;BME280;2080;51.038;7.008;2023-03-04T01:47:08;77888.13;;;-142.53;100.00
4133;BME280;2080;51.038;7.008;2023-03-04T01:49:33;77878.41;;;-142.53;100.00
4133;BME280;2080;51.038;7.008;2023-03-04T01:51:58;77874.53;;;-142.53;100.00
4133;BME280;2080;51.038;7.008;2023-03-04T01:54:24;77874.53;;;-142.53;100.00
4133;BME280;2080;51.038;7.008;2023-03-04T01:56:50;77878.41;;;-142.53;100.00
4133;BME280;2080;51.038;7.008;2023-03-04T01:59:24;77880.34;;;-142.53;100.00
4133;BME280;2080;51.038;7.008;2023-03-04T02:01:54;77882.31;;;-142.53;100.00
4133;BME280;2080;51.038;7.008;2023-03-04T02:04:27;77882.31;;;-142.53;100.00
4133;BME280;2080;51.038;7.008;2023-03-04T02:06:57;77882.31;;;-142.53;100.00
4133;BME280;2080;51.038;7.008;2023-03-04T02:09:23;77878.41;;;-142.53;100.00
4133;BME280;2080;51.038;7.008;2023-03-04T02:11:50;77872.59;;;-142.53;100.00
4133;BME280;2080;51.038;7.008;2023-03-04T02:14:18;77874.53;;;-142.53;100.00
4133;BME280;2080;51.038;7.008;2023-03-04T02:16:44;77882.31;;;-142.53;100.00
4133;BME280;2080;51.038;7.008;2023-03-04T02:22:01;77874.53;;;-142.53;100.00
4133;BME280;2080;51.038;7.008;2023-03-04T02:24:34;77870.63;;;-142.53;100.00
4133;BME280;2080;51.038;7.008;2023-03-04T02:27:03;77866.75;;;-142.53;100.00
4133;BME280;2080;51.038;7.008;2023-03-04T02:29:29;77874.53;;;-142.53;100.00
4133;BME280;2080;51.038;7.008;2023-03-04T02:31:55;77876.47;;;-142.53;100.00
4133;BME280;2080;51.038;7.008;2023-03-04T02:34:22;77862.88;;;-142.53;100.00
4133;BME280;2080;51.038;7.008;2023-03-04T02:36:51;77862.88;;;-142.53;100.00
4133;BME280;2080;51.038;7.008;2023-03-04T02:41:52;77860.94;;;-142.53;100.00
4133;BME280;2080;51.038;7.008;2023-03-04T02:46:46;77862.88;;;-142.53;100.00
4133;BME280;2080;51.038;7.008;2023-03-04T02:49:14;77855.09;;;-142.53;100.00
4133;BME280;2080;51.038;7.008;2023-03-04T02:51:39;77862.88;;;-142.53;100.00
4133;BME280;2080;51.038;7.008;2023-03-04T02:54:18;77858.97;;;-142.53;100.00
4133;BME280;2080;51.038;7.008;2023-03-04T02:56:54;77853.16;;;-142.53;100.00
4133;BME280;2080;51.038;7.008;2023-03-04T02:59:21;77847.31;;;-142.53;100.00
4133;BME280;2080;51.038;7.008;2023-03-04T03:01:49;77847.31;;;-142.53;100.00
4133;BME280;2080;51.038;7.008;2023-03-04T03:04:19;77841.50;;;-142.53;100.00
4133;BME280;2080;51.038;7.008;2023-03-04T03:06:45;77841.50;;;-142.53;100.00
4133;BME280;2080;51.038;7.008;2023-03-04T03:09:13;77839.56;;;-142.53;100.00
4133;BME280;2080;51.038;7.008;2023-03-04T03:11:39;77831.78;;;-142.53;100.00
4133;BME280;2080;51.038;7.008;2023-03-04T03:14:05;77839.56;;;-142.53;100.00
4133;BME280;2080;51.038;7.008;2023-03-04T03:16:31;77835.66;;;-142.53;100.00
4133;BME280;2080;51.038;7.008;2023-03-04T03:18:56;77835.66;;;-142.53;100.00
4133;BME280;2080;51.038;7.008;2023-03-04T03:21:24;77833.72;;;-142.53;100.00
4133;BME280;2080;51.038;7.008;2023-03-04T03:23:52;77835.66;;;-142.53;100.00
4133;BME280;2080;51.038;7.008;2023-03-04T03:26:18;77839.56;;;-142.53;100.00
4133;BME280;2080;51.038;7.008;2023-03-04T03:28:43;77833.72;;;-142.53;100.00
4133;BME280;2080;51.038;7.008;2023-03-04T03:31:09;77837.59;;;-142.53;100.00
4133;BME280;2080;51.038;7.008;2023-03-04T03:33:34;77833.72;;;-142.53;100.00
4133;BME280;2080;51.038;7.008;2023-03-04T03:36:02;77824.00;;;-142.53;100.00
4133;BME280;2080;51.038;7.008;2023-03-04T03:38:28;77820.13;;;-142.53;100.00
4133;BME280;2080;51.038;7.008;2023-03-04T03:40:55;77820.13;;;-142.53;100.00
4133;BME280;2080;51.038;7.008;2023-03-04T03:43:21;77824.00;;;-142.53;100.00
4133;BME280;2080;51.038;7.008;2023-03-04T03:45:46;77825.94;;;-142.53;100.00
4133;BME280;2080;51.038;7.008;2023-03-04T03:48:16;77820.13;;;-142.53;100.00
4133;BME280;2080;51.038;7.008;2023-03-04T03:50:41;77827.88;;;-142.53;100.00
4133;BME280;2080;51.038;7.008;2023-03-04T03:53:09;77824.00;;;-142.53;100.00
4133;BME280;2080;51.038;7.008;2023-03-04T03:55:36;77827.88;;;-142.53;100.00
4133;BME280;2080;51.038;7.008;2023-03-04T03:58:03;77827.88;;;-142.53;100.00
4133;BME280;2080;51.038;7.008;2023-03-04T04:00:31;77829.84;;;-142.53;100.00
4133;BME280;2080;51.038;7.008;2023-03-04T04:02:57;77825.94;;;-142.53;100.00
4133;BME280;2080;51.038;7.008;2023-03-04T04:05:23;77827.88;;;-142.53;100.00
4133;BME280;2080;51.038;7.008;2023-03-04T04:07:49;77825.94;;;-142.53;100.00
4133;BME280;2080;51.038;7.008;2023-03-04T04:10:14;77824.00;;;-142.53;100.00
4133;BME280;2080;51.038;7.008;2023-03-04T04:12:40;77822.06;;;-142.53;100.00
4133;BME280;2080;51.038;7.008;2023-03-04T04:15:06;77820.13;;;-142.53;100.00
4133;BME280;2080;51.038;7.008;2023-03-04T04:17:34;77824.00;;;-142.53;100.00
4133;BME280;2080;51.038;7.008;2023-03-04T04:19:59;77824.00;;;-142.53;100.00
4133;BME280;2080;51.038;7.008;2023-03-04T04:22:27;77822.06;;;-142.53;100.00
4133;BME280;2080;51.038;7.008;2023-03-04T04:24:52;77816.22;;;-142.53;100.00
4133;BME280;2080;51.038;7.008;2023-03-04T04:27:20;77824.00;;;-142.53;100.00
4133;BME280;2080;51.038;7.008;2023-03-04T04:29:48;77816.22;;;-142.53;100.00
4133;BME280;2080;51.038;7.008;2023-03-04T04:32:13;77810.41;;;-142.53;100.00
4133;BME280;2080;51.038;7.008;2023-03-04T04:34:38;77827.88;;;-142.53;100.00
4133;BME280;2080;51.038;7.008;2023-03-04T04:37:06;77804.56;;;-142.53;100.00
4133;BME280;2080;51.038;7.008;2023-03-04T04:39:31;77808.47;;;-142.53;100.00
4133;BME280;2080;51.038;7.008;2023-03-04T04:41:57;77808.47;;;-142.53;100.00
4133;BME280;2080;51.038;7.008;2023-03-04T04:44:22;77804.56;;;-142.53;100.00
4133;BME280;2080;51.038;7.008;2023-03-04T04:46:50;77810.41;;;-142.53;100.00
4133;BME280;2080;51.038;7.008;2023-03-04T04:49:17;77806.53;;;-142.53;100.00
4133;BME280;2080;51.038;7.008;2023-03-04T04:51:42;77802.63;;;-142.53;100.00
4133;BME280;2080;51.038;7.008;2023-03-04T04:54:09;77800.69;;;-142.53;100.00
4133;BME280;2080;51.038;7.008;2023-03-04T04:56:38;77796.81;;;-142.53;100.00
4133;BME280;2080;51.038;7.008;2023-03-04T04:59:05;77792.91;;;-142.53;100.00
4133;BME280;2080;51.038;7.008;2023-03-04T05:01:35;77792.91;;;-142.53;100.00
4133;BME280;2080;51.038;7.008;2023-03-04T05:04:00;77792.91;;;-142.53;100.00
4133;BME280;2080;51.038;7.008;2023-03-04T05:06:25;77792.91;;;-142.53;100.00
4133;BME280;2080;51.038;7.008;2023-03-04T05:08:51;77792.91;;;-142.53;100.00
4133;BME280;2080;51.038;7.008;2023-03-04T05:11:18;77804.56;;;-142.53;100.00
4133;BME280;2080;51.038;7.008;2023-03-04T05:13:44;77800.69;;;-142.53;100.00
4133;BME280;2080;51.038;7.008;2023-03-04T05:16:09;77796.81;;;-142.53;100.00
4133;BME280;2080;51.038;7.008;2023-03-04T05:18:35;77794.84;;;-142.53;100.00
4133;BME280;2080;51.038;7.008;2023-03-04T05:21:02;77789.03;;;-142.53;100.00
4133;BME280;2080;51.038;7.008;2023-03-04T05:23:33;77798.75;;;-142.53;100.00
4133;BME280;2080;51.038;7.008;2023-03-04T05:26:01;77792.91;;;-142.53;100.00
4133;BME280;2080;51.038;7.008;2023-03-04T05:28:27;77798.75;;;-142.53;100.00
4133;BME280;2080;51.038;7.008;2023-03-04T05:30:53;77798.75;;;-142.53;100.00
4133;BME280;2080;51.038;7.008;2023-03-04T05:33:21;77804.56;;;-142.53;100.00
4133;BME280;2080;51.038;7.008;2023-03-04T05:35:49;77800.69;;;-142.53;100.00
4133;BME280;2080;51.038;7.008;2023-03-04T05:38:20;77796.81;;;-142.53;100.00
4133;BME280;2080;51.038;7.008;2023-03-04T05:40:46;77796.81;;;-142.53;100.00
4133;BME280;2080;51.038;7.008;2023-03-04T05:43:15;77800.69;;;-142.53;100.00
4133;BME280;2080;51.038;7.008;2023-03-04T05:45:41;77796.81;;;-142.53;100.00
4133;BME280;2080;51.038;7.008;2023-03-04T05:48:07;77796.81;;;-142.53;100.00
4133;BME280;2080;51.038;7.008;2023-03-04T05:50:35;77796.81;;;-142.53;100.00
4133;BME280;2080;51.038;7.008;2023-03-04T05:53:01;77798.75;;;-142.53;100.00
4133;BME280;2080;51.038;7.008;2023-03-04T05:55:29;77796.81;;;-142.53;100.00
4133;BME280;2080;51.038;7.008;2023-03-04T05:57:55;77792.91;;;-142.53;100.00
4133;BME280;2080;51.038;7.008;2023-03-04T06:00:23;77789.03;;;-142.53;100.00
4133;BME280;2080;51.038;7.008;2023-03-04T06:02:49;77790.97;;;-142.53;100.00
4133;BME280;2080;51.038;7.008;2023-03-04T06:05:15;77789.03;;;-142.53;100.00
4133;BME280;2080;51.038;7.008;2023-03-04T06:07:42;77787.09;;;-142.53;100.00
4133;BME280;2080;51.038;7.008;2023-03-04T06:10:09;77785.16;;;-142.53;100.00
4133;BME280;2080;51.038;7.008;2023-03-04T06:12:37;77777.38;;;-142.53;100.00
4133;BME280;2080;51.038;7.008;2023-03-04T06:15:05;77773.47;;;-142.53;100.00
4133;BME280;2080;51.038;7.008;2023-03-04T06:17:34;77769.59;;;-142.53;100.00
4133;BME280;2080;51.038;7.008;2023-03-04T06:20:02;77769.59;;;-142.53;100.00
4133;BME280;2080;51.038;7.008;2023-03-04T06:22:29;77771.53;;;-142.53;100.00
4133;BME280;2080;51.038;7.008;2023-03-04T06:24:54;77761.81;;;-142.53;100.00
4133;BME280;2080;51.038;7.008;2023-03-04T06:27:19;77769.59;;;-142.53;100.00
4133;BME280;2080;51.038;7.008;2023-03-04T06:29:45;77765.72;;;-142.53;100.00
4133;BME280;2080;51.038;7.008;2023-03-04T06:32:10;77763.78;;;-142.53;100.00
4133;BME280;2080;51.038;7.008;2023-03-04T06:34:38;77756.00;;;-142.53;100.00
4133;BME280;2080;51.038;7.008;2023-03-04T06:37:03;77754.06;;;-142.53;100.00
4133;BME280;2080;51.038;7.008;2023-03-04T06:39:31;77750.16;;;-142.53;100.00
4133;BME280;2080;51.038;7.008;2023-03-04T06:41:59;77750.16;;;-142.53;100.00
4133;BME280;2080;51.038;7.008;2023-03-04T06:44:24;77746.28;;;-142.53;100.00
4133;BME280;2080;51.038;7.008;2023-03-04T06:46:50;77759.88;;;-142.53;100.00
4133;BME280;2080;51.038;7.008;2023-03-04T06:49:15;77761.81;;;-142.53;100.00
4133;BME280;2080;51.038;7.008;2023-03-04T06:51:43;77757.94;;;-142.53;100.00
4133;BME280;2080;51.038;7.008;2023-03-04T06:54:09;77744.34;;;-142.53;100.00
4133;BME280;2080;51.038;7.008;2023-03-04T06:56:34;77740.44;;;-142.53;100.00
4133;BME280;2080;51.038;7.008;2023-03-04T06:59:05;77738.50;;;-142.53;100.00
4133;BME280;2080;51.038;7.008;2023-03-04T07:01:33;77730.75;;;-142.53;100.00
4133;BME280;2080;51.038;7.008;2023-03-04T07:03:59;77722.97;;;-142.53;100.00
4133;BME280;2080;51.038;7.008;2023-03-04T07:06:27;77715.19;;;-142.53;100.00
4133;BME280;2080;51.038;7.008;2023-03-04T07:08:53;77715.19;;;-142.53;100.00
4133;BME280;2080;51.038;7.008;2023-03-04T07:11:20;77715.19;;;-142.53;100.00
4133;BME280;2080;51.038;7.008;2023-03-04T07:13:46;77695.75;;;-142.53;100.00
4133;BME280;2080;51.038;7.008;2023-03-04T07:16:18;77703.53;;;-142.53;100.00
4133;BME280;2080;51.038;7.008;2023-03-04T07:18:45;77697.69;;;-142.53;100.00
4133;BME280;2080;51.038;7.008;2023-03-04T07:21:12;77697.69;;;-142.53;100.00
4133;BME280;2080;51.038;7.008;2023-03-04T07:23:40;77688.00;;;-142.53;100.00
4133;BME280;2080;51.038;7.008;2023-03-04T07:26:06;77688.00;;;-142.53;100.00
4133;BME280;2080;51.038;7.008;2023-03-04T07:28:32;77699.66;;;-142.53;100.00
4133;BME280;2080;51.038;7.008;2023-03-04T07:31:18;77703.53;;;-142.53;100.00
4133;BME280;2080;51.038;7.008;2023-03-04T07:33:46;77703.53;;;-142.53;100.00
4133;BME280;2080;51.038;7.008;2023-03-04T07:36:12;77699.66;;;-142.53;100.00
4133;BME280;2080;51.038;7.008;2023-03-04T07:38:42;77691.88;;;-142.53;100.00
4133;BME280;2080;51.038;7.008;2023-03-04T07:41:10;77676.31;;;-142.53;100.00
4133;BME280;2080;51.038;7.008;2023-03-04T07:43:35;77668.56;;;-142.53;100.00
4133;BME280;2080;51.038;7.008;2023-03-04T07:46:01;77668.56;;;-142.53;100.00
4133;BME280;2080;51.038;7.008;2023-03-04T07:48:26;77660.78;;;-142.53;100.00
4133;BME280;2080;51.038;7.008;2023-03-04T07:51:22;77664.66;;;-142.53;100.00
4133;BME280;2080;51.038;7.008;2023-03-04T07:53:53;77645.25;;;-142.53;100.00
4133;BME280;2080;51.038;7.008;2023-03-04T07:56:22;77635.53;;;-142.53;100.00
4133;BME280;2080;51.038;7.008;2023-03-04T07:58:48;77627.75;;;-142.53;100.00
4133;BME280;2080;51.038;7.008;2023-03-04T08:01:16;77629.69;;;-142.53;99.85
4133;BME280;2080;51.038;7.008;2023-03-04T08:03:45;77618.03;;;-142.53;100.00
4133;BME280;2080;51.038;7.008;2023-03-04T08:06:15;77621.94;;;-142.53;100.00
4133;BME280;2080;51.038;7.008;2023-03-04T08:08:40;77618.03;;;-142.53;100.00
4133;BME280;2080;51.038;7.008;2023-03-04T08:11:11;77614.16;;;-142.53;99.23
4133;BME280;2080;51.038;7.008;2023-03-04T08:13:37;77604.44;;;-142.53;99.12
4133;BME280;2080;51.038;7.008;2023-03-04T08:16:03;77608.31;;;-142.53;99.62
4133;BME280;2080;51.038;7.008;2023-03-04T08:18:33;77610.28;;;-142.53;99.17
4133;BME280;2080;51.038;7.008;2023-03-04T08:21:01;77594.72;;;-142.53;98.81
4133;BME280;2080;51.038;7.008;2023-03-04T08:23:29;77594.72;;;-142.53;98.42
4133;BME280;2080;51.038;7.008;2023-03-04T08:25:54;77590.84;;;-142.53;98.62
4133;BME280;2080;51.038;7.008;2023-03-04T08:28:21;77579.19;;;-142.53;98.60
4133;BME280;2080;51.038;7.008;2023-03-04T08:30:52;77579.19;;;-142.53;98.24
4133;BME280;2080;51.038;7.008;2023-03-04T08:33:20;77575.28;;;-142.53;98.91
4133;BME280;2080;51.038;7.008;2023-03-04T08:35:48;77583.06;;;-142.53;98.59
4133;BME280;2080;51.038;7.008;2023-03-04T08:38:13;77579.19;;;-142.53;98.59
4133;BME280;2080;51.038;7.008;2023-03-04T08:40:41;77583.06;;;-142.53;98.39
4133;BME280;2080;51.038;7.008;2023-03-04T08:43:06;77586.94;;;-142.53;97.93
4133;BME280;2080;51.038;7.008;2023-03-04T08:45:31;77602.50;;;-142.53;99.03
4133;BME280;2080;51.038;7.008;2023-03-04T08:47:57;77598.59;;;-142.53;98.63
4133;BME280;2080;51.038;7.008;2023-03-04T08:50:24;77602.50;;;-142.53;99.85
4133;BME280;2080;51.038;7.008;2023-03-04T08:52:53;77594.72;;;-142.53;100.00
4133;BME280;2080;51.038;7.008;2023-03-04T08:55:20;77563.63;;;-142.53;99.85
4133;BME280;2080;51.038;7.008;2023-03-04T08:57:45;77571.41;;;-142.53;99.69
4133;BME280;2080;51.038;7.008;2023-03-04T09:00:11;77563.63;;;-142.53;99.74
4133;BME280;2080;51.038;7.008;2023-03-04T09:02:36;77532.53;;;-142.53;98.96
4133;BME280;2080;51.038;7.008;2023-03-04T09:05:04;77507.28;;;-142.53;98.81
4133;BME280;2080;51.038;7.008;2023-03-04T09:07:30;77501.47;;;-142.53;97.75
4133;BME280;2080;51.038;7.008;2023-03-04T09:09:55;77474.25;;;-142.53;96.07
4133;BME280;2080;51.038;7.008;2023-03-04T09:12:23;77462.59;;;-142.53;94.71
4133;BME280;2080;51.038;7.008;2023-03-04T09:14:48;77433.47;;;-142.53;95.17
4133;BME280;2080;51.038;7.008;2023-03-04T09:17:13;77404.31;;;-142.53;94.06
4133;BME280;2080;51.038;7.008;2023-03-04T09:19:39;77359.63;;;-142.53;93.20
4133;BME280;2080;51.038;7.008;2023-03-04T09:22:04;77334.38;;;-142.53;89.73
4133;BME280;2080;51.038;7.008;2023-03-04T09:26:56;77340.19;;;-142.53;88.80
4133;BME280;2080;51.038;7.008;2023-03-04T09:29:24;77349.91;;;-142.53;89.39
4133;BME280;2080;51.038;7.008;2023-03-04T09:31:52;77316.88;;;-142.53;89.42
4133;BME280;2080;51.038;7.008;2023-03-04T09:34:17;77283.84;;;-142.53;87.90
4133;BME280;2080;51.038;7.008;2023-03-04T09:36:42;77303.28;;;-142.53;87.20
4133;BME280;2080;51.038;7.008;2023-03-04T09:39:08;77318.81;;;-142.53;87.58
4133;BME280;2080;51.038;7.008;2023-03-04T09:41:43;77303.28;;;-142.53;87.57
4133;BME280;2080;51.038;7.008;2023-03-04T09:44:14;77314.94;;;-142.53;87.96
4133;BME280;2080;51.038;7.008;2023-03-04T09:46:42;77311.06;;;-142.53;88.55
4133;BME280;2080;51.038;7.008;2023-03-04T09:49:11;77330.47;;;-142.53;89.62
4133;BME280;2080;51.038;7.008;2023-03-04T09:51:50;77346.03;;;-142.53;89.37
4133;BME280;2080;51.038;7.008;2023-03-04T09:56:56;77386.81;;;-142.53;94.79
4133;BME280;2080;51.038;7.008;2023-03-04T09:59:29;77373.22;;;-142.53;93.40
4133;BME280;2080;51.038;7.008;2023-03-04T10:01:58;77347.97;;;-142.53;93.17
4133;BME280;2080;51.038;7.008;2023-03-04T10:06:50;77363.50;;;-142.53;93.25
4133;BME280;2080;51.038;7.008;2023-03-04T10:09:32;77388.78;;;-142.53;95.30
4133;BME280;2080;51.038;7.008;2023-03-04T10:12:14;77388.78;;;-142.53;95.46
4133;BME280;2080;51.038;7.008;2023-03-04T10:15:10;77396.53;;;-142.53;96.29
4133;BME280;2080;51.038;7.008;2023-03-04T10:17:44;77412.09;;;-142.53;98.02
4133;BME280;2080;51.038;7.008;2023-03-04T10:20:18;77398.47;;;-142.53;96.93
4133;BME280;2080;51.038;7.008;2023-03-04T10:25:23;77392.66;;;-142.53;99.96
4133;BME280;2080;51.038;7.008;2023-03-04T10:28:03;77381.00;;;-142.53;98.07
4133;BME280;2080;51.038;7.008;2023-03-04T10:30:40;77388.78;;;-142.53;97.94
4133;BME280;2080;51.038;7.008;2023-03-04T10:33:22;77381.00;;;-142.53;98.46
4133;BME280;2080;51.038;7.008;2023-03-04T10:38:24;77318.81;;;-142.53;97.02
4133;BME280;2080;51.038;7.008;2023-03-04T10:40:50;77307.16;;;-142.53;96.50
4133;BME280;2080;51.038;7.008;2023-03-04T10:43:21;77330.47;;;-142.53;97.82
4133;BME280;2080;51.038;7.008;2023-03-04T10:45:47;77336.31;;;-142.53;95.65
4133;BME280;2080;51.038;7.008;2023-03-04T10:48:27;77332.44;;;-142.53;96.97
4133;BME280;2080;51.038;7.008;2023-03-04T10:50:54;77307.16;;;-142.53;96.14
4133;BME280;2080;51.038;7.008;2023-03-04T10:53:43;77330.47;;;-142.53;95.93
4133;BME280;2080;51.038;7.008;2023-03-04T11:01:50;77334.38;;;-142.53;98.51
4133;BME280;2080;51.038;7.008;2023-03-04T11:04:18;77338.25;;;-142.53;99.61
4133;BME280;2080;51.038;7.008;2023-03-04T11:06:43;77307.16;;;-142.53;100.00
4133;BME280;2080;51.038;7.008;2023-03-04T11:09:21;77245.00;;;-142.53;98.36
4133;BME280;2080;51.038;7.008;2023-03-04T11:11:49;77186.72;;;-142.53;93.69
4133;BME280;2080;51.038;7.008;2023-03-04T11:16:58;77105.13;;;-142.53;90.79
4133;BME280;2080;51.038;7.008;2023-03-04T11:19:30;77072.09;;;-142.53;86.70
4133;BME280;2080;51.038;7.008;2023-03-04T11:21:59;77058.50;;;-142.53;85.28
4133;BME280;2080;51.038;7.008;2023-03-04T11:24:27;77011.88;;;-142.53;83.29
4133;BME280;2080;51.038;7.008;2023-03-04T11:27:02;77029.34;;;-142.53;83.22
4133;BME280;2080;51.038;7.008;2023-03-04T11:29:30;77042.94;;;-142.53;82.99
4133;BME280;2080;51.038;7.008;2023-03-04T11:34:50;77068.22;;;-142.53;81.69
4133;BME280;2080;51.038;7.008;2023-03-04T11:37:40;77085.69;;;-142.53;83.75
4133;BME280;2080;51.038;7.008;2023-03-04T11:40:14;77070.16;;;-142.53;82.11
4133;BME280;2080;51.038;7.008;2023-03-04T11:45:18;77093.47;;;-142.53;82.20
4133;BME280;2080;51.038;7.008;2023-03-04T11:47:57;77120.66;;;-142.53;84.00
4133;BME280;2080;51.038;7.008;2023-03-04T11:50:40;77105.13;;;-142.53;83.66
4133;BME280;2080;51.038;7.008;2023-03-04T12:22:28;77097.34;;;-142.53;88.24
4133;BME280;2080;51.038;7.008;2023-03-04T12:24:37;77109.00;;;-142.53;87.04
4133;BME280;2080;51.038;7.008;2023-03-04T12:27:20;77105.13;;;-142.53;86.00
4133;BME280;2080;51.038;7.008;2023-03-04T12:30:12;77140.09;;;-142.53;87.38
4133;BME280;2080;51.038;7.008;2023-03-04T12:33:01;77157.56;;;-142.53;88.15
4133;BME280;2080;51.038;7.008;2023-03-04T12:36:05;77163.41;;;-142.53;89.41
4133;BME280;2080;51.038;7.008;2023-03-04T12:47:05;76988.56;;;-142.53;82.52
4133;BME280;2080;51.038;7.008;2023-03-04T12:54:56;77042.94;;;-142.53;82.03
4133;BME280;2080;51.038;7.008;2023-03-04T12:57:24;77070.16;;;-142.53;83.59
4133;BME280;2080;51.038;7.008;2023-03-04T13:08:23;77046.84;;;-142.53;83.57
4133;BME280;2080;51.038;7.008;2023-03-04T13:10:51;77058.50;;;-142.53;82.77
4133;BME280;2080;51.038;7.008;2023-03-04T13:13:40;77066.25;;;-142.53;83.45
4133;BME280;2080;51.038;7.008;2023-03-04T13:16:29;77052.66;;;-142.53;83.58
4133;BME280;2080;51.038;7.008;2023-03-04T13:18:58;77072.09;;;-142.53;84.54
4133;BME280;2080;51.038;7.008;2023-03-04T13:21:27;77081.81;;;-142.53;85.30
4133;BME280;2080;51.038;7.008;2023-03-04T13:23:52;77081.81;;;-142.53;85.84
4133;BME280;2080;51.038;7.008;2023-03-04T13:26:22;77064.31;;;-142.53;86.30
4133;BME280;2080;51.038;7.008;2023-03-04T13:29:39;77039.06;;;-142.53;85.33
4133;BME280;2080;51.038;7.008;2023-03-04T13:32:12;77023.53;;;-142.53;84.75
4133;BME280;2080;51.038;7.008;2023-03-04T13:34:57;77023.53;;;-142.53;84.60
4133;BME280;2080;51.038;7.008;2023-03-04T13:37:32;77013.81;;;-142.53;84.84
4133;BME280;2080;51.038;7.008;2023-03-04T13:40:36;77046.84;;;-142.53;85.83
4133;BME280;2080;51.038;7.008;2023-03-04T13:43:23;77046.84;;;-142.53;86.26
4133;BME280;2080;51.038;7.008;2023-03-04T13:45:52;77056.56;;;-142.53;86.96
4133;BME280;2080;51.038;7.008;2023-03-04T13:48:36;77062.38;;;-142.53;87.75
4133;BME280;2080;51.038;7.008;2023-03-04T13:51:02;77058.50;;;-142.53;87.91
4133;BME280;2080;51.038;7.008;2023-03-04T13:53:51;77081.81;;;-142.53;89.68
4133;BME280;2080;51.038;7.008;2023-03-04T13:56:37;77093.47;;;-142.53;91.07
4133;BME280;2080;51.038;7.008;2023-03-04T14:04:41;77140.09;;;-142.53;96.79
4133;BME280;2080;51.038;7.008;2023-03-04T14:12:50;77116.78;;;-142.53;98.41
4133;BME280;2080;51.038;7.008;2023-03-04T14:15:21;77101.22;;;-142.53;98.03
4133;BME280;2080;51.038;7.008;2023-03-04T14:17:52;77112.88;;;-142.53;99.45
4133;BME280;2080;51.038;7.008;2023-03-04T14:20:39;77116.78;;;-142.53;99.77
4133;BME280;2080;51.038;7.008;2023-03-04T14:23:34;77122.59;;;-142.53;100.00
4133;BME280;2080;51.038;7.008;2023-03-04T14:26:12;77120.66;;;-142.53;100.00
4133;BME280;2080;51.038;7.008;2023-03-04T14:28:44;77107.06;;;-142.53;100.00
4133;BME280;2080;51.038;7.008;2023-03-04T14:31:15;77136.19;;;-142.53;100.00
4133;BME280;2080;51.038;7.008;2023-03-04T14:33:51;77101.22;;;-142.53;100.00
4133;BME280;2080;51.038;7.008;2023-03-04T14:36:22;77087.63;;;-142.53;100.00
4133;BME280;2080;51.038;7.008;2023-03-04T14:38:54;77077.91;;;-142.53;100.00
4133;BME280;2080;51.038;7.008;2023-03-04T14:41:31;77072.09;;;-142.53;100.00